Time;durP1;ratioP1;P1;durP2;ratioP2;P2;SDS_P1;SDS_P2;PMS_P1;PMS_P2;Temp;Humidity;BMP_temperature;BMP_pressure;BME280_temperature;BME280_humidity;BME280_pressure;Samples;Min_cycle;Max_cycle;Signal;HPM_P1;HPM_P2
2022/12/26 00:01:31;;;;;;;45.20;24.30;;;3.40;99.90;;;;;;4922875;29;20432;-73
2022/12/26 00:03:57;;;;;;;45.45;24.25;;;3.40;99.90;;;;;;4940305;29;20449;-73
2022/12/26 00:06:26;;;;;;;42.78;23.50;;;3.50;99.90;;;;;;4922859;29;20028;-72
2022/12/26 00:08:52;;;;;;;41.67;23.58;;;3.40;99.90;;;;;;4922152;29;20059;-72
2022/12/26 00:11:18;;;;;;;45.60;24.13;;;3.40;99.90;;;;;;4939285;29;20051;-71
2022/12/26 00:13:44;;;;;;;42.95;23.92;;;3.40;99.90;;;;;;4922462;29;20036;-73
2022/12/26 00:16:13;;;;;;;42.42;24.08;;;3.40;99.90;;;;;;4943540;29;20019;-73
2022/12/26 00:18:39;;;;;;;43.78;23.75;;;3.40;99.90;;;;;;4944212;29;20476;-73
2022/12/26 00:21:06;;;;;;;49.63;25.67;;;3.30;99.90;;;;;;4943668;29;20035;-73
2022/12/26 00:23:34;;;;;;;52.78;26.20;;;3.30;99.90;;;;;;4925631;29;20068;-72
2022/12/26 00:26:09;;;;;;;54.15;25.98;;;3.30;99.90;;;;;;4941586;29;20159;-73
2022/12/26 00:28:35;;;;;;;53.30;25.23;;;3.30;99.90;;;;;;4925616;29;20059;-72
2022/12/26 00:31:10;;;;;;;51.75;25.60;;;3.30;99.90;;;;;;4942132;29;20051;-73
2022/12/26 00:33:36;;;;;;;49.83;24.58;;;3.30;99.90;;;;;;4925008;29;20023;-73
2022/12/26 00:36:16;;;;;;;48.13;24.25;;;3.20;99.90;;;;;;4924041;29;20475;-73
2022/12/26 00:38:44;;;;;;;44.97;23.85;;;3.30;99.90;;;;;;4941118;29;20030;-72
2022/12/26 00:41:11;;;;;;;43.90;24.75;;;3.30;99.90;;;;;;4939993;29;20036;-72
2022/12/26 00:43:36;;;;;;;47.97;24.38;;;3.20;99.90;;;;;;4939908;29;20436;-72
2022/12/26 00:46:03;;;;;;;47.30;22.48;;;3.20;99.90;;;;;;4939772;29;20034;-72
2022/12/26 00:48:29;;;;;;;39.83;23.08;;;3.10;99.90;;;;;;4939813;29;20039;-72
2022/12/26 00:50:55;;;;;;;39.72;21.42;;;3.10;99.90;;;;;;4940054;29;20373;-72
2022/12/26 00:53:21;;;;;;;45.97;22.60;;;3.10;99.90;;;;;;4922397;29;20475;-72
2022/12/26 00:55:48;;;;;;;45.85;23.63;;;3.10;99.90;;;;;;4939605;29;20039;-72
2022/12/26 00:58:14;;;;;;;41.13;22.77;;;3.10;99.90;;;;;;4921978;29;20028;-72
2022/12/26 01:00:39;;;;;;;43.65;23.48;;;3.10;99.90;;;;;;4938813;29;20514;-72
2022/12/26 01:03:10;;;;;;;43.08;22.65;;;3.20;99.90;;;;;;4922045;29;20039;-73
2022/12/26 01:05:43;;;;;;;45.03;23.02;;;3.20;99.90;;;;;;4921859;29;20027;-73
2022/12/26 01:08:09;;;;;;;45.55;23.48;;;3.20;99.90;;;;;;4938947;29;20480;-72
2022/12/26 01:10:35;;;;;;;53.35;25.40;;;3.30;99.90;;;;;;4938948;29;20027;-72
2022/12/26 01:13:01;;;;;;;49.80;24.27;;;3.30;99.90;;;;;;4921519;29;20028;-73
2022/12/26 01:15:26;;;;;;;43.47;23.85;;;3.30;99.90;;;;;;4921291;29;20032;-73
2022/12/26 01:17:52;;;;;;;52.25;25.30;;;3.40;99.90;;;;;;4921814;29;20361;-72
2022/12/26 01:20:18;;;;;;;45.50;23.20;;;3.40;99.90;;;;;;4938477;29;20028;-72
2022/12/26 01:22:43;;;;;;;41.88;23.23;;;3.40;99.90;;;;;;4921476;29;20063;-72
2022/12/26 01:25:10;;;;;;;45.20;23.30;;;3.50;99.90;;;;;;4937994;29;20066;-72
2022/12/26 01:27:36;;;;;;;47.38;23.48;;;3.50;99.90;;;;;;4938527;29;20028;-73
2022/12/26 01:30:02;;;;;;;51.17;24.08;;;3.50;99.90;;;;;;4921242;29;20030;-73
2022/12/26 01:32:28;;;;;;;47.72;23.67;;;3.50;99.90;;;;;;4937952;29;20123;-72
2022/12/26 01:34:54;;;;;;;50.20;24.38;;;3.50;99.90;;;;;;4921003;29;20481;-72
2022/12/26 01:37:22;;;;;;;47.42;23.92;;;3.50;99.90;;;;;;4937825;29;20373;-73
2022/12/26 01:39:47;;;;;;;48.53;23.63;;;3.60;99.90;;;;;;4937801;29;20082;-73
2022/12/26 01:42:16;;;;;;;48.35;23.40;;;3.50;99.90;;;;;;4937891;29;20115;-72
2022/12/26 01:44:54;;;;;;;43.15;23.05;;;3.60;99.90;;;;;;4937317;29;20027;-73
2022/12/26 01:47:22;;;;;;;49.22;23.25;;;3.60;99.90;;;;;;4937652;29;20035;-73
2022/12/26 01:49:54;;;;;;;44.55;22.90;;;3.60;99.90;;;;;;4937662;29;20027;-72
2022/12/26 01:52:34;;;;;;;42.05;22.50;;;3.60;99.90;;;;;;4920911;29;20040;-73
2022/12/26 01:55:00;;;;;;;47.45;22.90;;;3.50;99.90;;;;;;4937539;29;20027;-72
2022/12/26 01:57:31;;;;;;;49.80;23.38;;;3.60;99.90;;;;;;4920758;29;20034;-72
2022/12/26 01:59:58;;;;;;;50.10;24.20;;;3.60;99.90;;;;;;4937684;29;20388;-73
2022/12/26 02:02:27;;;;;;;47.45;22.65;;;3.50;99.90;;;;;;4920283;29;20039;-73
2022/12/26 02:07:40;;;;;;;47.72;23.67;;;3.50;99.90;;;;;;4937628;29;20503;-73
2022/12/26 02:10:19;;;;;;;49.00;23.70;;;3.50;99.90;;;;;;4920234;29;20107;-72
2022/12/26 02:12:45;;;;;;;48.47;23.33;;;3.50;99.90;;;;;;4919725;29;20129;-73
2022/12/26 02:15:14;;;;;;;43.88;23.55;;;3.50;99.90;;;;;;4938300;29;20042;-73
2022/12/26 02:17:40;;;;;;;48.10;23.65;;;3.50;99.90;;;;;;4922238;29;20465;-73
2022/12/26 02:20:21;;;;;;;41.83;22.50;;;3.50;99.90;;;;;;4922420;29;20028;-73
2022/12/26 02:22:59;;;;;;;46.63;24.38;;;3.50;99.90;;;;;;4922918;29;20036;-72
2022/12/26 02:26:19;;;;;;;44.53;21.65;;;3.50;99.90;;;;;;4922977;29;20039;-73
2022/12/26 02:29:00;;;;;;;44.42;23.50;;;3.50;99.90;;;;;;4861957;29;20033;-72
2022/12/26 02:31:39;;;;;;;43.10;23.13;;;3.40;99.90;;;;;;4929379;29;20057;-72
2022/12/26 02:34:24;;;;;;;42.50;23.63;;;3.40;99.90;;;;;;4938366;29;20028;-73
2022/12/26 02:36:58;;;;;;;45.97;22.52;;;3.40;99.90;;;;;;4937612;29;20133;-72
2022/12/26 02:39:47;;;;;;;46.55;22.33;;;3.40;99.90;;;;;;4938226;29;20028;-72
2022/12/26 02:42:31;;;;;;;44.88;22.15;;;3.40;99.90;;;;;;4937685;29;20036;-72
2022/12/26 02:48:05;;;;;;;42.05;23.10;;;3.40;99.90;;;;;;4937685;29;20082;-73
2022/12/26 03:14:41;;;;;;;27.55;17.75;;;3.40;99.90;;;;;;4936829;29;20483;-73
2022/12/26 03:17:19;;;;;;;33.40;18.77;;;3.40;99.90;;;;;;4936740;29;20437;-72
2022/12/26 03:19:58;;;;;;;33.03;19.10;;;3.40;99.90;;;;;;4936590;29;20492;-73
2022/12/26 03:22:39;;;;;;;37.40;19.98;;;3.40;99.90;;;;;;4920409;29;20043;-73
2022/12/26 03:27:54;;;;;;;34.42;18.85;;;3.30;99.90;;;;;;4940645;29;20449;-72
2022/12/26 03:33:04;;;;;;;32.85;19.23;;;3.30;99.90;;;;;;4940423;29;20094;-73
2022/12/26 03:35:33;;;;;;;33.38;19.13;;;3.30;99.90;;;;;;4940309;29;20027;-73
2022/12/26 03:38:12;;;;;;;27.88;16.38;;;3.20;99.90;;;;;;4923128;29;20048;-72
2022/12/26 04:44:42;;;;;;;84.50;24.10;;;3.70;99.90;;;;;;4938794;29;20054;-72
2022/12/26 04:47:08;;;;;;;102.60;25.20;;;3.80;99.90;;;;;;4922067;29;20028;-72
2022/12/26 04:52:53;;;;;;;110.93;25.65;;;3.80;99.90;;;;;;4939157;29;20077;-72
2022/12/26 04:55:12;;;;;;;225.13;30.92;;;3.90;99.90;;;;;;4938406;29;20118;-72
2022/12/26 04:57:37;;;;;;;83.40;28.95;;;3.90;99.90;;;;;;4939148;29;20098;-73
2022/12/26 05:00:03;;;;;;;72.47;25.48;;;3.90;99.90;;;;;;4923608;29;20120;-73
2022/12/26 05:10:41;;;;;;;125.82;27.98;;;4.10;99.90;;;;;;4941324;29;20039;-72
2022/12/26 05:13:07;;;;;;;118.93;28.65;;;4.10;99.90;;;;;;4923379;29;20028;-72
2022/12/26 05:28:40;;;;;;;231.38;31.27;;;4.10;99.90;;;;;;4922670;29;20456;-72
2022/12/26 05:29:24;;;;;;;200.10;31.67;;;4.40;99.90;;;;;;4939081;29;20034;-73
2022/12/26 05:31:50;;;;;;;259.77;32.47;;;4.40;99.90;;;;;;4939495;29;20083;-73
2022/12/26 05:34:19;;;;;;;260.63;33.00;;;4.40;99.90;;;;;;4922077;29;20201;-72
2022/12/26 05:36:52;;;;;;;310.05;34.63;;;4.40;99.90;;;;;;4922618;29;20052;-73
2022/12/26 05:39:18;;;;;;;287.17;33.22;;;4.40;99.90;;;;;;4939021;29;20043;-73
2022/12/26 05:41:44;;;;;;;172.98;31.23;;;4.40;99.90;;;;;;4938947;29;20032;-72
2022/12/26 05:44:10;;;;;;;317.67;35.83;;;4.40;99.90;;;;;;4922250;29;20074;-73
2022/12/26 05:46:36;;;;;;;170.65;28.70;;;4.40;99.90;;;;;;4922113;29;20028;-73
2022/12/26 05:49:03;;;;;;;162.77;29.73;;;4.40;99.90;;;;;;4939253;29;20059;-73
2022/12/26 05:51:29;;;;;;;151.70;31.65;;;4.40;99.90;;;;;;4922463;29;20127;-73
2022/12/26 05:53:54;;;;;;;157.75;31.48;;;4.40;99.90;;;;;;4939718;29;20055;-73
2022/12/26 05:56:20;;;;;;;238.23;33.58;;;4.50;99.90;;;;;;4921906;29;20035;-73
2022/12/26 05:58:46;;;;;;;169.63;32.30;;;4.50;99.90;;;;;;4940084;29;20028;-74
2022/12/26 06:01:16;;;;;;;158.15;29.10;;;4.50;99.90;;;;;;4922572;29;20028;-74
2022/12/26 06:03:46;;;;;;;147.35;30.38;;;4.50;99.90;;;;;;4939846;29;20027;-73
2022/12/26 06:06:12;;;;;;;173.45;30.77;;;4.50;99.90;;;;;;4922202;29;20036;-74
2022/12/26 06:08:38;;;;;;;168.27;31.30;;;4.50;99.90;;;;;;4922210;29;20031;-74
2022/12/26 06:11:06;;;;;;;124.13;30.15;;;4.50;99.90;;;;;;4939722;29;20031;-73
2022/12/26 06:13:32;;;;;;;142.43;28.38;;;4.50;99.90;;;;;;4939295;29;20035;-74
2022/12/26 06:15:58;;;;;;;116.60;28.52;;;4.50;99.90;;;;;;4921538;29;20031;-74
2022/12/26 06:18:24;;;;;;;125.25;29.40;;;4.50;99.90;;;;;;4938855;29;20083;-74
2022/12/26 06:20:51;;;;;;;133.07;29.83;;;4.50;99.90;;;;;;4939174;29;20059;-74
2022/12/26 06:23:16;;;;;;;122.45;28.88;;;4.50;99.90;;;;;;4921437;29;20028;-74
2022/12/26 06:25:42;;;;;;;125.45;28.75;;;4.50;99.90;;;;;;4920896;29;20058;-74
2022/12/26 06:28:08;;;;;;;108.60;27.65;;;4.50;99.90;;;;;;4920964;29;20039;-73
2022/12/26 06:30:33;;;;;;;110.10;26.63;;;4.50;99.90;;;;;;4937716;29;20024;-74
2022/12/26 06:32:59;;;;;;;143.57;28.90;;;4.50;99.90;;;;;;4937756;29;20035;-73
2022/12/26 06:35:25;;;;;;;205.52;27.98;;;4.60;99.90;;;;;;4937013;29;20027;-74
2022/12/26 06:37:50;;;;;;;134.60;26.08;;;4.60;99.90;;;;;;4920058;29;20492;-74
2022/12/26 06:40:16;;;;;;;135.13;27.10;;;4.60;99.90;;;;;;4920918;29;20091;-73
2022/12/26 06:42:42;;;;;;;102.93;27.98;;;4.60;99.90;;;;;;4920408;29;20034;-73
2022/12/26 06:45:08;;;;;;;152.27;27.63;;;4.60;99.90;;;;;;4920333;29;20032;-73
2022/12/26 06:47:34;;;;;;;112.05;27.65;;;4.60;99.90;;;;;;4938094;29;20028;-74
2022/12/26 06:49:59;;;;;;;127.82;27.02;;;4.60;99.90;;;;;;4937689;29;20028;-73
2022/12/26 06:52:25;;;;;;;140.20;27.20;;;4.60;99.90;;;;;;4920975;29;20066;-73
2022/12/26 06:54:51;;;;;;;170.55;26.77;;;4.60;99.90;;;;;;4938057;29;20035;-73
2022/12/26 06:57:17;;;;;;;92.95;26.98;;;4.60;99.90;;;;;;4937361;29;20020;-73
2022/12/26 06:59:42;;;;;;;132.43;26.95;;;4.60;99.90;;;;;;4939834;29;20027;-73
2022/12/26 07:02:10;;;;;;;79.47;24.02;;;4.60;99.90;;;;;;4924380;29;20065;-74
2022/12/26 07:04:35;;;;;;;126.10;25.52;;;4.60;99.90;;;;;;4924321;29;20028;-73
2022/12/26 07:07:02;;;;;;;103.75;24.77;;;4.60;99.90;;;;;;4941696;29;20112;-74
2022/12/26 07:09:27;;;;;;;100.90;26.80;;;4.60;99.90;;;;;;4924246;29;20490;-73
2022/12/26 07:11:55;;;;;;;120.38;24.38;;;4.60;99.90;;;;;;4924024;29;20126;-58
2022/12/26 07:14:20;;;;;;;159.48;26.15;;;4.60;99.90;;;;;;4940143;29;20027;-69
2022/12/26 07:16:46;;;;;;;86.45;25.48;;;4.60;99.90;;;;;;4940399;29;20083;-73
2022/12/26 07:19:13;;;;;;;92.70;25.60;;;4.50;99.90;;;;;;4923398;29;20030;-74
2022/12/26 07:21:39;;;;;;;107.13;23.90;;;4.50;99.90;;;;;;4940482;29;20190;-74
2022/12/26 07:24:06;;;;;;;91.88;24.38;;;4.60;99.90;;;;;;4924011;29;20451;-74
2022/12/26 07:26:31;;;;;;;117.03;25.25;;;4.60;99.90;;;;;;4923282;29;20020;-75
2022/12/26 07:28:58;;;;;;;114.03;23.52;;;4.60;99.90;;;;;;4940786;29;20031;-72
2022/12/26 07:31:26;;;;;;;90.28;25.60;;;4.60;99.90;;;;;;4923791;29;20163;-74
2022/12/26 07:33:54;;;;;;;104.63;24.77;;;4.60;99.90;;;;;;4923766;29;20477;-75
2022/12/26 07:36:20;;;;;;;73.00;24.25;;;4.60;99.90;;;;;;4923201;29;20059;-74
2022/12/26 07:38:47;;;;;;;83.97;25.30;;;4.60;99.90;;;;;;4943042;29;20043;-73
2022/12/26 07:43:57;;;;;;;133.27;25.08;;;4.60;99.90;;;;;;4942818;29;20137;-73
2022/12/26 07:46:23;;;;;;;73.57;25.27;;;4.60;99.90;;;;;;4914635;29;20032;-74
2022/12/26 07:48:48;;;;;;;82.80;25.88;;;4.60;99.90;;;;;;4910169;29;20036;-73
2022/12/26 07:51:14;;;;;;;88.32;25.10;;;4.60;99.90;;;;;;4908521;29;20362;-73
2022/12/26 07:53:40;;;;;;;90.03;24.60;;;4.50;99.90;;;;;;4908695;29;20034;-73
2022/12/26 07:56:06;;;;;;;83.13;23.38;;;4.50;99.90;;;;;;4924656;29;20028;-73
2022/12/26 07:58:31;;;;;;;91.60;25.85;;;4.40;99.90;;;;;;4908401;29;20032;-73
2022/12/26 08:01:01;;;;;;;64.85;24.20;;;4.40;99.90;;;;;;4911015;29;20024;-73
2022/12/26 08:03:27;;;;;;;61.78;24.00;;;4.40;99.90;;;;;;4926205;29;20544;-73
2022/12/26 08:05:53;;;;;;;67.85;24.08;;;4.50;99.90;;;;;;4925839;29;20067;-73
2022/12/26 08:08:19;;;;;;;52.80;23.33;;;4.50;99.90;;;;;;4925757;29;20461;-73
2022/12/26 08:10:44;;;;;;;52.55;23.20;;;4.60;99.90;;;;;;4942427;29;20024;-74
2022/12/26 08:13:10;;;;;;;61.40;21.25;;;4.60;99.90;;;;;;4925647;29;20032;-73
2022/12/26 08:15:39;;;;;;;47.70;22.27;;;4.60;99.90;;;;;;4943464;29;20050;-74
2022/12/26 08:18:06;;;;;;;38.38;20.77;;;4.60;99.90;;;;;;4926210;29;20028;-74
2022/12/26 08:20:32;;;;;;;35.92;20.88;;;4.60;99.90;;;;;;4925507;29;20027;-73
2022/12/26 08:22:58;;;;;;;34.60;21.48;;;4.60;99.90;;;;;;4941891;29;20036;-63
2022/12/26 08:25:24;;;;;;;32.65;18.17;;;4.60;99.90;;;;;;4938846;29;20027;-64
2022/12/26 08:27:49;;;;;;;30.13;19.15;;;4.50;99.90;;;;;;4939311;29;20035;-65
2022/12/26 08:30:15;;;;;;;32.30;19.00;;;4.40;99.90;;;;;;4939697;29;20062;-67
2022/12/26 08:32:42;;;;;;;29.70;18.80;;;4.40;99.90;;;;;;4937744;29;20471;-64
2022/12/26 08:35:08;;;;;;;32.10;19.70;;;4.40;99.90;;;;;;4937304;29;20019;-73
2022/12/26 08:37:33;;;;;;;30.23;17.90;;;4.40;99.90;;;;;;4908928;29;20207;-73
2022/12/26 08:39:59;;;;;;;30.95;18.42;;;4.50;99.90;;;;;;4902744;29;20032;-73
2022/12/26 08:42:25;;;;;;;28.45;17.65;;;4.50;99.90;;;;;;4922151;29;20038;-74
2022/12/26 08:44:50;;;;;;;33.30;20.48;;;4.60;99.90;;;;;;4922858;29;20370;-74
2022/12/26 08:47:16;;;;;;;29.13;19.13;;;4.60;99.90;;;;;;4922703;29;20050;-74
2022/12/26 08:49:42;;;;;;;31.65;18.67;;;4.70;99.90;;;;;;4906620;29;20028;-75
2022/12/26 08:52:08;;;;;;;32.00;19.30;;;4.70;99.90;;;;;;4905447;29;20380;-75
2022/12/26 08:54:34;;;;;;;29.73;19.85;;;4.70;99.90;;;;;;4922215;29;20020;-75
2022/12/26 08:56:59;;;;;;;31.33;18.83;;;4.70;99.90;;;;;;4922419;29;20036;-75
2022/12/26 08:59:25;;;;;;;29.08;18.30;;;4.80;99.90;;;;;;4923136;29;20031;-75
2022/12/26 09:01:51;;;;;;;28.58;18.52;;;4.80;99.90;;;;;;4923669;29;20079;-74
2022/12/26 09:04:16;;;;;;;29.25;18.15;;;4.90;99.90;;;;;;4905813;29;20465;-74
2022/12/26 09:06:42;;;;;;;26.60;17.98;;;5.00;99.90;;;;;;4905082;29;20063;-74
2022/12/26 09:09:11;;;;;;;26.35;17.13;;;5.00;99.90;;;;;;4922983;29;20035;-74
2022/12/26 09:11:37;;;;;;;26.15;17.45;;;5.10;99.90;;;;;;4907023;29;20036;-75
2022/12/26 09:14:03;;;;;;;23.08;15.50;;;5.20;99.90;;;;;;4924720;29;20044;-74
2022/12/26 09:16:35;;;;;;;26.70;16.15;;;5.30;99.90;;;;;;4924153;29;20526;-74
2022/12/26 09:19:01;;;;;;;27.42;16.75;;;5.30;99.90;;;;;;4924767;29;20032;-74
2022/12/26 09:21:28;;;;;;;24.20;15.93;;;5.40;99.90;;;;;;4923837;29;20453;-74
2022/12/26 09:24:03;;;;;;;26.88;16.95;;;5.40;99.90;;;;;;4923245;29;20119;-74
2022/12/26 09:26:29;;;;;;;23.85;15.82;;;5.30;99.90;;;;;;4922006;29;20028;-74
2022/12/26 09:28:55;;;;;;;25.67;16.23;;;5.30;99.90;;;;;;4923199;29;20052;-73
2022/12/26 09:31:27;;;;;;;28.23;17.98;;;5.40;99.90;;;;;;4905785;29;20028;-74
2022/12/26 09:33:53;;;;;;;25.98;16.83;;;5.40;99.90;;;;;;4908580;29;20040;-74
2022/12/26 09:36:24;;;;;;;27.35;17.75;;;5.50;99.90;;;;;;4909436;29;20048;-74
2022/12/26 09:38:51;;;;;;;26.92;17.08;;;5.50;99.90;;;;;;4910101;29;20056;-74
2022/12/26 09:41:39;;;;;;;27.75;16.65;;;5.60;99.90;;;;;;4908808;29;20028;-73
2022/12/26 09:44:20;;;;;;;27.25;16.80;;;5.70;99.90;;;;;;4923000;29;20429;-73
2022/12/26 09:46:57;;;;;;;26.23;16.58;;;5.70;99.90;;;;;;4922038;29;20370;-73
2022/12/26 09:49:32;;;;;;;25.38;16.17;;;5.80;99.90;;;;;;4923289;29;20492;-73
2022/12/26 09:52:00;;;;;;;27.23;16.27;;;5.80;99.90;;;;;;4905427;29;20064;-73
2022/12/26 09:54:40;;;;;;;32.88;19.77;;;5.70;99.90;;;;;;4923483;29;20085;-73
2022/12/26 09:57:13;;;;;;;27.35;17.60;;;5.80;99.90;;;;;;4906720;29;20477;-73
2022/12/26 10:00:00;;;;;;;26.75;17.10;;;5.80;99.90;;;;;;4906148;29;20384;-73
2022/12/26 10:02:26;;;;;;;28.63;18.02;;;6.00;99.90;;;;;;4922342;29;20028;-73
2022/12/26 10:04:53;;;;;;;24.00;16.63;;;6.10;99.90;;;;;;4905815;29;20036;-73
2022/12/26 10:07:34;;;;;;;25.52;16.08;;;6.20;99.90;;;;;;4906000;29;20292;-73
2022/12/26 10:10:11;;;;;;;25.15;15.75;;;6.30;99.90;;;;;;4922354;29;20063;-73
2022/12/26 10:12:48;;;;;;;24.83;16.55;;;6.50;99.90;;;;;;4905705;29;20034;-73
2022/12/26 10:15:32;;;;;;;23.30;16.08;;;6.60;99.90;;;;;;4906451;29;20032;-73
2022/12/26 10:18:03;;;;;;;21.75;14.32;;;6.90;99.90;;;;;;4922962;29;20058;-73
2022/12/26 10:20:31;;;;;;;20.90;14.07;;;7.00;99.90;;;;;;4922271;29;20028;-73
2022/12/26 10:23:12;;;;;;;20.73;14.00;;;7.10;99.90;;;;;;4919567;29;20032;-73
2022/12/26 10:25:41;;;;;;;18.02;13.70;;;7.20;99.90;;;;;;4904477;29;20085;-73
2022/12/26 10:28:33;;;;;;;17.77;13.40;;;7.30;99.90;;;;;;4902834;29;20035;-73
2022/12/26 10:31:05;;;;;;;20.15;14.35;;;7.40;99.90;;;;;;4912368;29;20515;-73
2022/12/26 10:33:52;;;;;;;18.83;13.57;;;7.50;99.90;;;;;;4919366;29;20365;-72
2022/12/26 10:36:29;;;;;;;19.05;13.95;;;7.50;99.90;;;;;;4907815;29;20500;-73
2022/12/26 10:38:58;;;;;;;18.50;14.15;;;7.50;99.90;;;;;;4938783;29;20095;-73
2022/12/26 10:41:39;;;;;;;20.23;13.77;;;7.60;99.90;;;;;;4921693;29;20060;-73
2022/12/26 10:44:04;;;;;;;18.52;13.98;;;7.70;99.90;;;;;;4921151;29;20500;-73
2022/12/26 10:46:55;;;;;;;20.05;14.77;;;7.80;99.90;;;;;;4921859;29;20028;-73
2022/12/26 10:49:23;;;;;;;18.23;14.15;;;7.80;99.90;;;;;;4939966;29;20040;-73
2022/12/26 10:51:51;;;;;;;20.50;14.35;;;7.90;99.90;;;;;;4923322;29;20032;-73
2022/12/26 10:54:17;;;;;;;19.48;14.07;;;7.80;99.90;;;;;;4941510;29;20136;-73
2022/12/26 10:56:46;;;;;;;21.25;15.10;;;7.80;99.90;;;;;;4922572;29;20032;-73
2022/12/26 10:59:35;;;;;;;21.38;15.25;;;7.90;99.90;;;;;;4939408;29;20031;-73
2022/12/26 11:02:27;;;;;;;27.38;16.17;;;7.90;99.90;;;;;;4931628;29;20078;-73
2022/12/26 11:05:13;;;;;;;22.15;15.90;;;7.90;99.90;;;;;;4939594;29;20032;-76
2022/12/26 11:07:54;;;;;;;23.33;15.40;;;7.80;99.90;;;;;;4939626;29;20055;-73
2022/12/26 11:10:23;;;;;;;23.00;16.10;;;7.80;99.90;;;;;;4924083;29;20028;-73
2022/12/26 11:12:54;;;;;;;25.25;16.30;;;7.80;99.90;;;;;;4922704;29;20037;-73
2022/12/26 11:15:23;;;;;;;23.85;16.15;;;7.80;99.90;;;;;;4941027;29;20036;-73
2022/12/26 11:17:51;;;;;;;23.63;17.27;;;7.80;99.90;;;;;;4941842;29;20027;-73
2022/12/26 11:20:22;;;;;;;25.70;16.77;;;7.90;99.90;;;;;;4940972;29;20469;-73
2022/12/26 11:22:48;;;;;;;22.20;16.13;;;7.90;99.90;;;;;;4923831;29;20035;-73
2022/12/26 11:25:17;;;;;;;22.90;16.15;;;8.00;99.90;;;;;;4926125;29;20036;-73
2022/12/26 11:27:49;;;;;;;26.80;17.42;;;8.00;99.90;;;;;;4941837;29;20038;-73
2022/12/26 11:30:19;;;;;;;22.35;14.98;;;8.10;99.90;;;;;;4940751;29;20031;-73
2022/12/26 11:33:00;;;;;;;23.13;15.60;;;6.80;99.90;;;;;;4942215;29;20035;-73
2022/12/26 11:35:33;;;;;;;24.02;15.32;;;8.10;99.90;;;;;;4926154;29;20028;-74
2022/12/26 11:38:00;;;;;;;21.35;15.32;;;8.10;99.90;;;;;;4925819;29;20404;-74
2022/12/26 11:41:30;;;;;;;19.67;13.80;;;8.20;99.90;;;;;;4923498;29;20035;-74
2022/12/26 11:43:32;;;;;;;19.67;13.23;;;8.20;99.90;;;;;;4939703;29;20445;-74
2022/12/26 11:45:58;;;;;;;16.15;12.35;;;8.30;99.90;;;;;;4924980;29;20445;-74
2022/12/26 11:48:25;;;;;;;18.08;12.77;;;8.30;99.90;;;;;;4908968;29;20086;-74
2022/12/26 11:50:52;;;;;;;17.60;13.18;;;8.40;99.90;;;;;;4909190;29;20450;-73
2022/12/26 11:53:20;;;;;;;16.77;12.30;;;8.60;99.90;;;;;;4907167;29;20036;-74
2022/12/26 11:55:58;;;;;;;14.77;11.07;;;8.90;99.90;;;;;;4924684;29;20032;-73
2022/12/26 11:58:28;;;;;;;18.08;12.10;;;9.10;99.90;;;;;;4908906;29;20029;-73
2022/12/26 12:01:00;;;;;;;15.73;12.07;;;9.00;99.90;;;;;;4928046;29;20111;-74
2022/12/26 12:03:25;;;;;;;17.83;12.43;;;8.70;99.90;;;;;;4910981;29;20032;-72
2022/12/26 12:06:06;;;;;;;17.08;12.45;;;8.60;99.90;;;;;;4929966;29;20051;-74
2022/12/26 12:08:56;;;;;;;19.27;13.10;;;8.60;99.90;;;;;;4928847;29;20024;-73
2022/12/26 12:11:52;;;;;;;18.88;13.20;;;8.70;99.90;;;;;;4910162;29;20024;-73
2022/12/26 12:14:27;;;;;;;18.52;13.32;;;8.80;99.90;;;;;;4927390;29;20024;-73
2022/12/26 12:17:00;;;;;;;23.33;14.13;;;8.90;99.90;;;;;;4926485;29;20099;-72
2022/12/26 12:19:49;;;;;;;18.23;13.52;;;9.00;99.90;;;;;;4926349;29;20024;-73
2022/12/26 12:22:25;;;;;;;16.67;12.02;;;9.20;99.90;;;;;;4924668;29;20032;-73
2022/12/26 12:25:21;;;;;;;16.52;13.18;;;9.40;99.90;;;;;;4905392;29;20060;-73
2022/12/26 12:27:53;;;;;;;20.20;13.93;;;9.70;99.90;;;;;;4904892;29;20028;-73
2022/12/26 12:30:25;;;;;;;20.75;13.48;;;9.80;99.90;;;;;;4920347;29;20029;-61
2022/12/26 12:33:16;;;;;;;17.15;11.73;;;10.00;99.90;;;;;;4902503;29;20032;-73
2022/12/26 12:36:03;;;;;;;16.17;12.20;;;10.10;99.90;;;;;;4902726;29;20036;-73
2022/12/26 12:38:47;;;;;;;15.75;12.35;;;10.10;99.90;;;;;;4921644;29;20134;-73
2022/12/26 12:41:23;;;;;;;15.93;12.15;;;10.10;99.90;;;;;;4919487;29;20036;-73
2022/12/26 12:43:59;;;;;;;15.70;12.82;;;10.00;99.90;;;;;;4936057;29;20119;-73
2022/12/26 12:46:49;;;;;;;14.55;11.88;;;9.90;99.90;;;;;;4938675;29;20160;-73
2022/12/26 12:49:23;;;;;;;20.40;13.80;;;9.80;99.90;;;;;;4938621;29;20070;-72
2022/12/26 12:52:18;;;;;;;28.50;21.75;;;9.70;99.90;;;;;;4921364;29;20456;-73
2022/12/26 12:54:56;;;;;;;18.17;13.13;;;9.60;99.90;;;;;;4938454;29;20100;-73
2022/12/26 12:57:46;;;;;;;18.75;14.82;;;9.50;99.90;;;;;;4938866;29;20024;-73
2022/12/26 13:00:20;;;;;;;17.95;13.55;;;9.40;99.90;;;;;;4934799;29;20020;-73
2022/12/26 13:03:10;;;;;;;17.30;13.73;;;9.30;99.90;;;;;;4905860;29;20032;-73
2022/12/26 13:06:23;;;;;;;21.77;17.52;;;9.20;99.90;;;;;;4907027;29;20043;-73
2022/12/26 13:09:03;;;;;;;19.00;14.77;;;9.10;99.90;;;;;;4914824;29;20370;-73
2022/12/26 13:12:04;;;;;;;18.67;13.88;;;9.00;99.90;;;;;;4924084;29;20028;-73
2022/12/26 13:14:38;;;;;;;20.90;15.27;;;8.90;99.90;;;;;;4921455;29;20048;-73
2022/12/26 13:17:10;;;;;;;21.83;17.10;;;8.80;99.90;;;;;;4923649;29;20101;-73
2022/12/26 13:19:48;;;;;;;20.80;16.02;;;8.80;99.90;;;;;;4923012;29;20030;-73
2022/12/26 13:24:22;;;;;;;24.83;16.02;;;8.70;99.90;;;;;;4904625;29;20394;-72
2022/12/26 13:25:18;;;;;;;22.70;16.23;;;8.70;99.90;;;;;;4920987;29;20036;-72
2022/12/26 13:27:47;;;;;;;22.67;16.77;;;8.70;99.90;;;;;;4921602;29;20035;-73
2022/12/26 13:30:16;;;;;;;27.05;17.27;;;8.70;99.90;;;;;;4922655;29;20024;-73
2022/12/26 13:32:42;;;;;;;27.98;18.60;;;8.80;99.90;;;;;;4905060;29;20040;-73
2022/12/26 13:35:46;;;;;;;26.60;18.10;;;8.80;99.90;;;;;;4922377;29;20043;-72
2022/12/26 13:38:12;;;;;;;28.38;19.38;;;8.90;99.90;;;;;;4924563;29;20454;-73
2022/12/26 13:40:46;;;;;;;30.52;20.13;;;9.00;99.90;;;;;;4924618;29;20035;-73
2022/12/26 13:46:53;;;;;;;29.23;19.85;;;9.10;99.90;;;;;;4923576;29;20047;-73
2022/12/26 13:49:38;;;;;;;31.73;21.83;;;9.30;99.90;;;;;;4905779;29;20052;-73
2022/12/26 13:52:10;;;;;;;31.27;21.77;;;9.50;99.90;;;;;;4906472;29;20063;-73
2022/12/26 13:54:57;;;;;;;36.58;23.35;;;9.50;99.90;;;;;;4906268;29;20491;-73
2022/12/26 13:57:41;;;;;;;34.53;23.77;;;9.50;99.90;;;;;;4923780;29;20032;-74
2022/12/26 14:00:13;;;;;;;36.28;24.13;;;9.40;99.90;;;;;;4925337;29;20064;-74
2022/12/26 14:02:51;;;;;;;41.90;24.92;;;9.40;99.90;;;;;;4924490;29;20043;-74
2022/12/26 14:05:34;;;;;;;38.63;24.90;;;9.40;99.90;;;;;;4924961;29;20039;-75
2022/12/26 14:08:27;;;;;;;35.42;24.95;;;9.40;99.90;;;;;;4925331;29;20028;-74
2022/12/26 14:11:01;;;;;;;38.78;26.20;;;9.30;99.90;;;;;;4906832;29;20028;-73
2022/12/26 14:13:49;;;;;;;35.53;24.20;;;9.20;99.90;;;;;;4922879;29;20553;-73
2022/12/26 14:16:17;;;;;;;34.10;22.88;;;9.20;99.90;;;;;;4933432;29;20023;-73
2022/12/26 14:18:56;;;;;;;32.70;21.65;;;9.10;99.90;;;;;;4920321;29;20110;-72
2022/12/26 14:21:28;;;;;;;31.83;21.63;;;9.10;99.90;;;;;;4926291;29;20035;-67
2022/12/26 14:24:30;;;;;;;32.65;21.75;;;9.00;99.90;;;;;;4936100;29;20425;-66
2022/12/26 14:27:00;;;;;;;31.30;22.73;;;8.90;99.90;;;;;;4938777;29;20031;-74
2022/12/26 14:30:05;;;;;;;31.73;21.98;;;8.80;99.90;;;;;;4925480;29;20060;-74
2022/12/26 14:32:54;;;;;;;40.63;25.42;;;8.60;99.90;;;;;;4926058;29;20024;-74
2022/12/26 14:35:41;;;;;;;37.10;24.05;;;8.60;99.90;;;;;;4942657;29;20051;-70
2022/12/26 14:38:33;;;;;;;41.15;27.30;;;8.50;99.90;;;;;;4944045;29;20043;-73
2022/12/26 14:41:01;;;;;;;40.40;26.95;;;8.50;99.90;;;;;;4926325;29;20118;-74
2022/12/26 14:43:33;;;;;;;32.38;22.02;;;8.40;99.90;;;;;;4943016;29;20042;-75
2022/12/26 14:46:01;;;;;;;33.25;22.10;;;8.40;99.90;;;;;;4942997;29;20146;-74
2022/12/26 14:48:26;;;;;;;38.55;25.25;;;8.30;99.90;;;;;;4943617;29;20012;-75
2022/12/26 14:50:56;;;;;;;33.72;22.85;;;8.20;99.90;;;;;;4927897;29;20051;-76
2022/12/26 14:53:33;;;;;;;38.78;23.92;;;8.20;99.90;;;;;;4927587;29;20100;-76
2022/12/26 14:56:10;;;;;;;37.22;24.23;;;8.10;99.90;;;;;;4943335;29;20088;-74
2022/12/26 14:58:45;;;;;;;41.17;25.92;;;8.00;99.90;;;;;;4927284;29;20028;-75
2022/12/26 15:01:14;;;;;;;39.55;26.52;;;8.00;99.90;;;;;;4927487;29;20028;-76
2022/12/26 15:03:58;;;;;;;40.97;26.63;;;7.90;99.90;;;;;;4942792;29;20036;-76
2022/12/26 15:06:42;;;;;;;42.97;26.35;;;7.90;99.90;;;;;;4939379;29;20035;-74
2022/12/26 15:09:20;;;;;;;37.60;25.13;;;7.80;99.90;;;;;;4939390;29;20035;-74